Time;durP1;ratioP1;P1;durP2;ratioP2;P2;SDS_P1;SDS_P2;PMS_P1;PMS_P2;Temp;Humidity;BMP_temperature;BMP_pressure;BME280_temperature;BME280_humidity;BME280_pressure;Samples;Min_cycle;Max_cycle;Signal;HPM_P1;HPM_P2
2021/11/14 00:01:20;;;;;;;78.40;47.22;;;;;;;22.54;46.23;102084.22;4996377;28;20046;-76
2021/11/14 00:03:47;;;;;;;48.03;32.40;;;;;;;22.52;46.31;102087.38;4996501;28;20022;-75
2021/11/14 00:06:14;;;;;;;40.10;27.45;;;;;;;22.77;45.64;102079.59;4993876;28;20027;-75
2021/11/14 00:08:40;;;;;;;32.42;21.77;;;;;;;22.78;45.40;102080.41;4996159;28;20022;-76
2021/11/14 00:11:11;;;;;;;28.17;19.75;;;;;;;22.81;45.42;102083.25;4995852;28;20109;-76
2021/11/14 00:13:40;;;;;;;28.42;17.33;;;;;;;22.86;45.41;102079.41;4995758;28;20014;-76
2021/11/14 00:16:07;;;;;;;33.47;20.38;;;;;;;22.87;45.32;102081.81;4996186;28;20026;-76
2021/11/14 00:18:34;;;;;;;30.88;18.15;;;;;;;22.91;45.13;102081.91;4996024;28;20097;-75
2021/11/14 00:20:59;;;;;;;28.00;18.88;;;;;;;22.89;45.19;102087.84;4995899;28;20026;-76
2021/11/14 00:23:25;;;;;;;29.67;19.00;;;;;;;22.88;45.38;102089.00;4996185;28;20027;-76
2021/11/14 00:25:51;;;;;;;29.38;17.85;;;;;;;22.90;45.05;102094.25;4996117;28;20029;-76
2021/11/14 00:28:17;;;;;;;27.33;17.08;;;;;;;22.87;45.13;102078.22;4995792;28;20381;-76
2021/11/14 00:30:43;;;;;;;33.40;18.25;;;;;;;22.85;45.00;102081.38;4995704;28;20023;-76
2021/11/14 00:33:11;;;;;;;26.58;17.02;;;;;;;22.81;45.33;102083.25;4995718;28;20027;-76
2021/11/14 00:35:37;;;;;;;31.20;18.27;;;;;;;22.81;44.90;102080.47;4993281;28;20084;-76
2021/11/14 00:38:03;;;;;;;32.65;19.08;;;;;;;22.79;45.14;102079.22;4995659;28;20022;-74
2021/11/14 00:40:32;;;;;;;31.83;19.73;;;;;;;22.75;45.17;102081.94;4995993;28;20085;-74
2021/11/14 00:43:00;;;;;;;35.13;18.25;;;;;;;22.78;45.27;102086.78;4995940;28;20092;-75
2021/11/14 00:45:28;;;;;;;28.88;17.63;;;;;;;22.76;45.43;102088.31;4995891;28;20034;-74
2021/11/14 00:47:54;;;;;;;29.88;17.70;;;;;;;22.78;45.20;102099.91;4995383;28;20136;-74
2021/11/14 00:50:21;;;;;;;29.30;17.10;;;;;;;22.78;45.18;102103.50;4995785;28;20019;-75
2021/11/14 00:52:46;;;;;;;27.63;17.23;;;;;;;22.70;45.52;102105.31;4957252;28;20384;-75
2021/11/14 00:55:16;;;;;;;29.10;17.95;;;;;;;22.67;45.70;102110.78;4957215;29;20027;-74
2021/11/14 00:57:42;;;;;;;28.85;17.08;;;;;;;22.69;45.42;102111.25;4956983;28;20038;-74
2021/11/14 01:00:11;;;;;;;30.92;18.05;;;;;;;22.67;45.33;102111.63;4956955;28;20039;-75
2021/11/14 01:02:38;;;;;;;33.05;17.92;;;;;;;22.66;45.67;102101.63;4956902;28;20034;-75
2021/11/14 01:05:06;;;;;;;29.05;17.77;;;;;;;22.68;45.50;102102.09;4956895;28;20389;-75
2021/11/14 01:07:31;;;;;;;34.72;19.23;;;;;;;22.70;45.29;102088.59;4956860;28;20031;-75
2021/11/14 01:09:57;;;;;;;30.23;17.58;;;;;;;22.73;45.10;102089.84;4956732;28;20035;-75
2021/11/14 01:12:23;;;;;;;25.95;15.52;;;;;;;22.74;45.60;102099.00;4956692;28;20035;-75
2021/11/14 01:14:48;;;;;;;30.58;19.25;;;;;;;22.64;45.89;102097.59;4956729;28;20054;-76
2021/11/14 01:17:14;;;;;;;52.72;33.00;;;;;;;22.68;45.39;102098.50;4956580;28;20106;-76
2021/11/14 01:19:40;;;;;;;70.28;42.00;;;;;;;22.67;45.58;102103.25;4956777;28;20030;-75
2021/11/14 01:22:06;;;;;;;127.68;78.63;;;;;;;22.70;45.46;102098.94;4956762;28;20544;-75
2021/11/14 01:24:31;;;;;;;53.50;34.60;;;;;;;22.71;45.40;102098.56;4956433;28;20552;-75
2021/11/14 01:26:57;;;;;;;42.17;25.52;;;;;;;22.70;45.65;102105.31;4956452;28;20090;-75
2021/11/14 01:29:23;;;;;;;31.10;17.65;;;;;;;22.68;45.33;102104.06;4956432;28;20035;-75
2021/11/14 01:31:49;;;;;;;33.63;19.83;;;;;;;22.67;45.69;102102.41;4956456;29;20106;-75
2021/11/14 01:34:15;;;;;;;37.75;20.80;;;;;;;22.63;45.64;102107.91;4956394;28;20034;-76
2021/11/14 01:36:40;;;;;;;28.73;18.60;;;;;;;22.66;45.44;102107.19;4956268;29;20414;-76
2021/11/14 01:39:07;;;;;;;31.30;18.20;;;;;;;22.63;45.46;102104.34;4956265;29;20028;-75
2021/11/14 01:41:34;;;;;;;30.58;18.90;;;;;;;22.63;45.55;102101.53;4956201;28;20027;-75
2021/11/14 01:44:02;;;;;;;36.63;22.85;;;;;;;22.61;45.64;102099.13;4956037;28;20110;-75
2021/11/14 01:46:29;;;;;;;35.17;23.05;;;;;;;22.66;45.63;102095.25;4956060;28;20094;-76
2021/11/14 01:48:55;;;;;;;28.38;17.83;;;;;;;22.67;45.75;102096.84;4956116;28;20042;-75
2021/11/14 01:51:21;;;;;;;31.08;19.20;;;;;;;22.69;45.62;102089.75;4971987;28;20051;-75
2021/11/14 01:53:48;;;;;;;29.15;18.67;;;;;;;22.72;45.40;102091.00;4994703;28;20033;-75
2021/11/14 01:56:15;;;;;;;27.95;18.10;;;;;;;22.70;45.27;102093.34;4994618;28;20465;-75
2021/11/14 01:58:42;;;;;;;33.00;18.60;;;;;;;22.69;45.56;102100.09;4993509;28;20480;-76
2021/11/14 02:01:15;;;;;;;29.73;19.60;;;;;;;22.63;45.70;102102.34;4994442;28;20042;-75
2021/11/14 02:03:45;;;;;;;25.27;15.27;;;;;;;22.60;45.98;102107.84;4993241;28;20362;-75
2021/11/14 02:06:11;;;;;;;33.03;18.15;;;;;;;22.61;45.64;102110.28;4994087;28;20027;-76
2021/11/14 02:08:39;;;;;;;38.40;26.73;;;;;;;22.64;45.80;102109.53;4994265;28;20029;-75
2021/11/14 02:11:06;;;;;;;39.03;25.75;;;;;;;22.79;45.19;102107.88;4994173;28;20085;-75
2021/11/14 02:13:32;;;;;;;28.00;18.77;;;;;;;22.65;45.66;102104.78;4994328;28;20026;-75
2021/11/14 02:15:58;;;;;;;41.60;24.90;;;;;;;22.64;45.72;102101.19;4994170;28;20485;-76
2021/11/14 02:18:24;;;;;;;31.00;21.75;;;;;;;22.60;45.99;102105.88;4994430;28;20068;-75
2021/11/14 02:20:51;;;;;;;28.85;19.33;;;;;;;22.62;45.64;102106.31;4994146;28;20027;-76
2021/11/14 02:23:22;;;;;;;40.88;27.65;;;;;;;22.61;45.88;102099.13;4994084;28;20062;-75
2021/11/14 02:25:49;;;;;;;36.78;25.00;;;;;;;22.56;46.10;102106.94;4994134;28;20481;-75
2021/11/14 02:28:17;;;;;;;38.67;25.95;;;;;;;22.53;45.96;102107.69;4994009;28;20032;-76
2021/11/14 02:30:45;;;;;;;28.05;19.20;;;;;;;22.51;46.17;102110.81;4993786;28;20038;-76
2021/11/14 02:33:11;;;;;;;25.15;16.55;;;;;;;22.55;46.01;102108.94;4993948;28;20461;-76
2021/11/14 02:35:39;;;;;;;24.17;15.73;;;;;;;22.54;46.18;102110.09;4993887;28;20032;-75
2021/11/14 02:38:05;;;;;;;23.83;14.50;;;;;;;22.57;46.08;102120.50;4994143;28;20058;-76
2021/11/14 02:40:31;;;;;;;22.75;14.05;;;;;;;22.59;45.62;102115.38;4993797;28;20509;-75
2021/11/14 02:42:57;;;;;;;20.75;13.75;;;;;;;22.64;45.69;102119.88;4994029;28;20045;-76
2021/11/14 02:45:24;;;;;;;26.02;14.77;;;;;;;22.63;45.52;102116.28;4993716;28;20459;-75
2021/11/14 02:47:51;;;;;;;21.13;14.07;;;;;;;22.59;45.85;102125.72;4993686;28;20030;-76
2021/11/14 02:50:18;;;;;;;23.65;15.20;;;;;;;22.59;45.87;102120.94;4993582;28;20026;-76
2021/11/14 02:52:44;;;;;;;19.75;13.27;;;;;;;22.53;46.11;102119.63;4993499;28;20401;-76
2021/11/14 02:55:13;;;;;;;21.85;13.80;;;;;;;22.42;46.28;102121.34;4993577;28;20591;-76
2021/11/14 02:57:39;;;;;;;20.00;13.90;;;;;;;22.49;45.86;102121.50;4976840;28;20070;-75
2021/11/14 03:00:12;;;;;;;23.02;15.35;;;;;;;22.47;46.07;102114.69;4993754;28;20519;-75
2021/11/14 03:02:38;;;;;;;25.08;15.18;;;;;;;22.46;45.88;102122.25;4993452;28;20026;-76
2021/11/14 03:05:13;;;;;;;23.35;14.90;;;;;;;22.43;46.00;102131.31;4993701;28;20022;-76
2021/11/14 03:07:39;;;;;;;22.73;15.02;;;;;;;22.43;46.16;102132.09;4993662;28;20026;-76
2021/11/14 03:10:07;;;;;;;19.48;13.52;;;;;;;22.43;45.96;102129.31;4992955;28;20526;-76
2021/11/14 03:12:33;;;;;;;19.88;14.10;;;;;;;22.47;46.11;102120.25;4993314;28;20030;-76
2021/11/14 03:14:59;;;;;;;18.45;13.65;;;;;;;22.49;45.94;102121.50;4993580;28;20032;-75
2021/11/14 03:17:25;;;;;;;24.40;15.80;;;;;;;22.42;46.08;102122.16;4993319;28;20041;-76
2021/11/14 03:19:51;;;;;;;21.23;15.38;;;;;;;22.48;45.74;102122.69;4993244;28;20030;-76
2021/11/14 03:22:17;;;;;;;20.42;15.52;;;;;;;22.53;45.96;102124.41;4993235;28;20045;-76
2021/11/14 03:24:43;;;;;;;21.20;14.05;;;;;;;22.48;46.05;102124.66;4993412;28;20465;-76
2021/11/14 03:27:09;;;;;;;24.20;15.77;;;;;;;22.51;45.76;102127.53;4993446;28;20109;-76
2021/11/14 03:29:35;;;;;;;21.95;16.83;;;;;;;22.45;46.15;102123.41;4993384;28;20379;-76
2021/11/14 03:32:01;;;;;;;20.58;15.23;;;;;;;22.43;46.23;102126.53;4993040;28;20034;-76
2021/11/14 03:34:26;;;;;;;21.58;14.93;;;;;;;22.45;46.23;102117.84;4992990;28;20025;-76
2021/11/14 03:36:52;;;;;;;21.83;15.20;;;;;;;22.47;46.01;102118.28;4993330;28;20109;-76
2021/11/14 03:39:18;;;;;;;21.25;15.18;;;;;;;22.47;45.93;102123.84;4992959;28;20388;-76
2021/11/14 03:41:44;;;;;;;23.25;16.02;;;;;;;22.49;45.90;102118.72;4993077;28;20037;-76
2021/11/14 03:44:11;;;;;;;21.25;15.10;;;;;;;22.49;45.80;102123.50;4993022;28;20033;-77
2021/11/14 03:46:38;;;;;;;21.48;14.48;;;;;;;22.48;45.67;102119.91;4993267;28;20100;-75
2021/11/14 03:49:05;;;;;;;20.38;15.60;;;;;;;22.42;46.05;102115.75;4992924;28;20030;-76
2021/11/14 03:51:31;;;;;;;25.08;16.73;;;;;;;22.42;46.05;102118.56;4992174;28;20501;-75
2021/11/14 03:53:59;;;;;;;20.27;15.57;;;;;;;22.45;45.67;102112.28;4992107;28;20460;-76
2021/11/14 03:56:27;;;;;;;18.50;13.73;;;;;;;22.43;45.84;102109.84;4992343;28;20021;-76
2021/11/14 03:58:54;;;;;;;19.30;14.48;;;;;;;22.43;45.65;102109.03;4992064;28;20034;-75
2021/11/14 04:01:21;;;;;;;20.20;14.50;;;;;;;22.41;45.63;102114.16;4992261;28;20050;-76
2021/11/14 04:03:50;;;;;;;18.02;13.90;;;;;;;22.39;45.68;102119.28;4992139;28;20105;-76
2021/11/14 04:06:16;;;;;;;19.23;12.88;;;;;;;22.41;45.72;102116.94;4991939;28;20030;-76
2021/11/14 04:08:42;;;;;;;21.77;12.52;;;;;;;22.39;45.67;102117.31;4992018;28;20033;-76
2021/11/14 04:11:08;;;;;;;17.15;12.27;;;;;;;22.39;45.67;102120.09;4991877;28;20041;-76
2021/11/14 04:13:34;;;;;;;19.15;12.15;;;;;;;22.38;45.70;102123.25;4991882;28;20022;-76
2021/11/14 04:16:05;;;;;;;20.00;11.55;;;;;;;22.11;46.12;102131.31;4992114;28;20431;-76
2021/11/14 04:18:31;;;;;;;15.23;10.38;;;;;;;22.05;46.45;102129.13;4991837;28;20037;-75
2021/11/14 04:20:57;;;;;;;13.60;10.50;;;;;;;21.99;46.36;102128.59;4991838;28;20030;-75
2021/11/14 04:23:24;;;;;;;15.60;11.40;;;;;;;21.94;46.45;102122.47;4995375;28;20078;-75
2021/11/14 04:25:49;;;;;;;14.30;10.25;;;;;;;21.85;46.44;102128.22;4995111;28;20034;-75
2021/11/14 04:28:18;;;;;;;19.80;10.95;;;;;;;21.82;46.63;102123.34;4995005;28;20504;-75
2021/11/14 04:30:45;;;;;;;12.40;9.82;;;;;;;21.77;46.85;102129.19;4995016;28;20041;-76
2021/11/14 04:33:12;;;;;;;12.20;9.80;;;;;;;21.79;46.67;102135.19;4994985;28;20031;-75
2021/11/14 04:35:38;;;;;;;15.13;9.80;;;;;;;21.77;46.66;102131.97;4994866;28;20101;-75
2021/11/14 04:38:04;;;;;;;15.57;10.25;;;;;;;21.76;46.61;102135.88;4995134;28;20035;-76
2021/11/14 04:40:35;;;;;;;13.35;10.35;;;;;;;21.76;46.61;102135.88;4994819;28;20483;-76
2021/11/14 04:43:01;;;;;;;15.82;10.25;;;;;;;21.73;46.66;102136.59;4995136;28;20057;-76
2021/11/14 04:45:26;;;;;;;17.33;9.82;;;;;;;21.74;46.71;102138.22;4994810;28;20469;-75
2021/11/14 04:47:52;;;;;;;16.13;9.73;;;;;;;21.78;46.67;102139.16;4994754;28;20041;-75
2021/11/14 04:53:03;;;;;;;12.77;9.70;;;;;;;21.80;46.54;102147.94;5090029;28;20394;-73
2021/11/14 04:55:29;;;;;;;18.60;10.40;;;;;;;21.82;46.63;102151.16;5088623;28;20380;-73
2021/11/14 04:57:54;;;;;;;13.77;10.73;;;;;;;21.83;46.37;102150.78;5089993;28;20017;-73
2021/11/14 05:00:50;;;;;;;16.73;10.50;;;;;;;21.85;46.46;102153.25;5089904;28;20386;-73
2021/11/14 05:03:16;;;;;;;12.77;9.20;;;;;;;21.86;46.61;102152.09;5089559;28;20037;-73
2021/11/14 05:05:42;;;;;;;11.38;9.20;;;;;;;21.83;46.51;102155.56;5090103;28;20051;-72
2021/11/14 05:08:09;;;;;;;13.40;9.23;;;;;;;21.79;46.53;102152.69;5089788;28;20364;-73
2021/11/14 05:10:35;;;;;;;14.30;11.07;;;;;;;21.72;46.64;102152.50;5089714;28;20063;-73
2021/11/14 05:13:01;;;;;;;11.85;8.90;;;;;;;21.69;46.46;102157.94;5089732;28;20028;-72
2021/11/14 05:15:27;;;;;;;12.30;9.02;;;;;;;21.61;46.67;102151.38;5088371;28;20471;-73
2021/11/14 05:17:52;;;;;;;12.85;9.13;;;;;;;21.58;46.58;102158.47;5077722;28;20112;-74
2021/11/14 05:20:18;;;;;;;13.15;10.05;;;;;;;21.57;46.45;102158.81;5069246;28;20063;-74
2021/11/14 05:22:44;;;;;;;17.55;10.13;;;;;;;21.57;46.52;102164.38;5069329;28;20032;-74
2021/11/14 05:25:10;;;;;;;13.05;9.77;;;;;;;21.54;46.65;102163.13;5069226;28;20036;-74
2021/11/14 05:27:35;;;;;;;16.33;10.75;;;;;;;21.54;46.44;102165.91;5069202;28;20025;-74
2021/11/14 05:30:03;;;;;;;12.35;9.80;;;;;;;21.55;46.53;102163.94;5069163;28;20066;-74
2021/11/14 05:32:29;;;;;;;15.98;11.18;;;;;;;21.53;46.48;102161.47;5069314;28;20068;-74
2021/11/14 05:34:54;;;;;;;15.68;10.73;;;;;;;21.51;46.46;102166.59;5068962;28;20501;-74
2021/11/14 05:37:20;;;;;;;15.07;11.18;;;;;;;21.51;46.63;102157.44;5069028;28;20084;-74
2021/11/14 05:39:46;;;;;;;14.35;10.00;;;;;;;21.49;46.45;102148.66;5068442;28;20112;-74
2021/11/14 05:42:11;;;;;;;15.50;10.60;;;;;;;21.51;46.47;102161.03;5067490;28;20024;-74
2021/11/14 05:44:37;;;;;;;13.63;9.57;;;;;;;21.47;46.60;102153.78;5068745;28;20556;-76
2021/11/14 05:47:02;;;;;;;17.52;10.95;;;;;;;21.48;46.41;102150.63;5069103;28;20479;-74
2021/11/14 05:49:28;;;;;;;15.20;11.23;;;;;;;21.50;46.35;102156.63;5067491;28;20387;-73
2021/11/14 05:51:54;;;;;;;12.15;9.20;;;;;;;21.43;46.41;102158.41;5068492;28;20049;-74
2021/11/14 05:54:20;;;;;;;13.63;9.57;;;;;;;21.40;46.70;102168.28;5068551;28;20395;-73
2021/11/14 05:56:45;;;;;;;11.60;9.30;;;;;;;21.42;46.79;102168.72;5068834;28;20032;-74
2021/11/14 06:02:00;;;;;;;12.82;10.07;;;;;;;21.44;46.67;102166.38;5068539;28;20083;-73
2021/11/14 06:04:50;;;;;;;15.93;9.85;;;;;;;21.43;46.81;102167.56;5054953;28;20059;-75
2021/11/14 06:07:17;;;;;;;11.93;9.02;;;;;;;21.47;46.66;102167.69;5055185;28;20032;-74
2021/11/14 06:09:42;;;;;;;12.52;9.30;;;;;;;21.48;46.70;102172.06;5055128;28;20025;-74
2021/11/14 06:12:08;;;;;;;11.40;8.32;;;;;;;21.48;46.70;102172.06;5054965;28;20033;-74
2021/11/14 06:14:34;;;;;;;13.30;8.27;;;;;;;21.43;46.73;102164.78;5055031;28;20029;-74
2021/11/14 06:17:00;;;;;;;13.35;8.82;;;;;;;21.43;46.87;102164.78;5055031;28;20025;-73
2021/11/14 06:19:26;;;;;;;14.35;9.45;;;;;;;21.44;46.81;102169.16;5053751;28;20387;-73
2021/11/14 06:21:52;;;;;;;10.77;8.52;;;;;;;21.46;46.52;102169.66;5054953;28;20067;-73
2021/11/14 06:24:18;;;;;;;13.10;8.70;;;;;;;21.45;46.92;102165.22;5054975;28;20025;-73
2021/11/14 06:26:45;;;;;;;13.32;9.00;;;;;;;21.44;46.90;102179.47;5055118;28;20025;-73
2021/11/14 06:29:11;;;;;;;10.70;7.88;;;;;;;21.45;47.00;102181.09;5054736;28;20060;-72
2021/11/14 06:31:37;;;;;;;10.60;6.97;;;;;;;21.45;46.93;102179.13;5054650;28;20021;-73
2021/11/14 06:34:03;;;;;;;11.45;8.07;;;;;;;21.40;46.88;102187.72;5054760;28;20470;-73
2021/11/14 06:36:29;;;;;;;11.45;7.65;;;;;;;21.47;46.70;102181.56;5054638;28;20036;-73
2021/11/14 06:38:54;;;;;;;8.98;6.45;;;;;;;21.47;46.84;102184.34;5053393;28;20528;-73
2021/11/14 06:41:20;;;;;;;9.57;7.25;;;;;;;21.47;46.89;102185.16;5054596;28;20086;-73
2021/11/14 06:43:46;;;;;;;9.20;6.78;;;;;;;21.48;46.74;102192.34;5054532;28;20032;-72
2021/11/14 06:46:11;;;;;;;8.98;6.90;;;;;;;21.50;46.63;102195.56;5054461;28;20716;-73
2021/11/14 06:48:37;;;;;;;9.75;7.05;;;;;;;21.45;46.94;102195.81;5054486;28;20037;-73
2021/11/14 06:51:03;;;;;;;10.75;6.93;;;;;;;21.45;46.86;102198.59;5053946;28;20392;-73
2021/11/14 06:53:29;;;;;;;9.73;6.93;;;;;;;21.50;46.89;102212.25;5054445;28;20025;-72
2021/11/14 06:55:54;;;;;;;9.70;6.95;;;;;;;21.60;46.83;102217.31;5054263;28;20033;-75
2021/11/14 06:58:21;;;;;;;12.30;7.63;;;;;;;21.64;46.68;102222.19;5052963;28;20059;-74
2021/11/14 07:00:47;;;;;;;9.43;6.82;;;;;;;21.59;46.42;102221.25;5052864;28;20033;-73
2021/11/14 07:03:14;;;;;;;9.88;7.10;;;;;;;21.57;46.73;102218.03;5054139;28;20025;-73
2021/11/14 07:05:40;;;;;;;13.35;9.48;;;;;;;21.57;46.76;102220.81;5054349;28;20086;-74
2021/11/14 07:08:06;;;;;;;16.02;10.88;;;;;;;22.07;45.34;102221.44;5070646;28;20028;-74
2021/11/14 07:10:31;;;;;;;13.07;9.57;;;;;;;21.78;46.07;102215.06;5070913;28;20482;-75
2021/11/14 07:12:57;;;;;;;17.48;13.18;;;;;;;21.64;46.53;102216.63;5073726;28;20032;-74
2021/11/14 07:15:24;;;;;;;10.32;7.57;;;;;;;21.49;46.80;102221.75;5070092;28;20025;-74
2021/11/14 07:17:50;;;;;;;12.93;6.65;;;;;;;21.48;46.85;102219.34;5073775;28;20043;-74
2021/11/14 07:20:16;;;;;;;12.25;9.50;;;;;;;21.46;46.86;102222.47;5072935;28;20483;-73
2021/11/14 07:22:44;;;;;;;13.13;11.25;;;;;;;21.44;46.94;102218.41;5073149;28;20445;-74
2021/11/14 07:25:14;;;;;;;13.93;9.77;;;;;;;21.45;46.91;102218.06;5073233;28;20029;-74
2021/11/14 07:27:42;;;;;;;15.60;10.15;;;;;;;21.46;46.82;102227.19;5073385;28;20059;-75
2021/11/14 07:30:09;;;;;;;14.02;7.85;;;;;;;21.47;46.97;102221.31;5073327;28;20473;-76
2021/11/14 07:32:35;;;;;;;14.35;8.32;;;;;;;21.48;46.79;102224.91;5073154;28;20028;-75
2021/11/14 07:35:00;;;;;;;13.23;7.00;;;;;;;21.45;47.19;102231.97;5073059;28;20085;-73
2021/11/14 07:37:26;;;;;;;11.60;7.30;;;;;;;21.48;47.16;102225.72;5073022;28;20093;-73
2021/11/14 07:39:51;;;;;;;13.70;9.60;;;;;;;21.66;46.77;102220.66;5072748;28;20038;-74
2021/11/14 07:42:17;;;;;;;11.85;6.90;;;;;;;21.55;46.80;102220.38;5071363;28;20036;-74
2021/11/14 07:44:43;;;;;;;9.55;7.03;;;;;;;21.47;47.22;102220.50;5071523;28;20020;-74
2021/11/14 07:47:08;;;;;;;9.48;6.57;;;;;;;21.45;47.20;102222.81;5072750;28;20119;-74
2021/11/14 07:49:34;;;;;;;13.25;8.23;;;;;;;21.42;47.15;102227.09;5073054;28;20033;-73
2021/11/14 07:52:00;;;;;;;15.05;6.53;;;;;;;21.45;47.46;102231.16;5072535;28;20576;-74
2021/11/14 07:54:25;;;;;;;11.80;6.05;;;;;;;21.46;47.09;102238.31;5071467;28;20048;-74
2021/11/14 07:56:51;;;;;;;8.90;6.40;;;;;;;21.44;47.37;102247.03;5072769;28;20044;-74
2021/11/14 07:59:16;;;;;;;8.57;6.57;;;;;;;21.43;47.21;102250.16;5071374;28;20032;-75
2021/11/14 08:01:42;;;;;;;12.82;6.30;;;;;;;21.35;47.49;102249.13;5072509;28;20032;-75
2021/11/14 08:04:08;;;;;;;8.88;5.97;;;;;;;21.38;47.49;102250.38;5072690;28;20028;-75
2021/11/14 08:06:35;;;;;;;9.73;6.00;;;;;;;21.35;47.46;102271.38;5072390;28;20070;-75
2021/11/14 08:09:01;;;;;;;11.25;5.63;;;;;;;21.36;47.32;102259.09;5072309;28;20397;-75
2021/11/14 08:11:27;;;;;;;9.07;5.85;;;;;;;21.38;47.22;102258.72;5072703;28;20024;-75
2021/11/14 08:13:53;;;;;;;8.13;6.10;;;;;;;21.37;47.29;102266.28;5058591;28;20116;-72
2021/11/14 08:16:19;;;;;;;8.85;5.95;;;;;;;21.36;47.17;102259.09;5059548;28;20127;-73
2021/11/14 08:18:44;;;;;;;7.38;5.15;;;;;;;21.37;47.03;102260.72;5069991;28;20036;-72
2021/11/14 08:21:10;;;;;;;8.18;5.72;;;;;;;21.32;47.42;102270.13;5070377;28;20036;-73
2021/11/14 08:23:36;;;;;;;12.63;7.28;;;;;;;21.37;47.28;102273.81;5083890;28;20056;-72
2021/11/14 08:26:02;;;;;;;10.57;6.53;;;;;;;21.86;45.90;102272.53;5070988;27;20062;-70
2021/11/14 08:28:27;;;;;;;10.85;7.32;;;;;;;21.97;45.84;102267.25;5069841;28;20020;-75
2021/11/14 08:30:53;;;;;;;13.13;6.57;;;;;;;21.95;45.79;102271.56;5070499;28;20081;-71
2021/11/14 08:33:18;;;;;;;11.55;7.07;;;;;;;22.06;45.78;102273.47;5070317;28;20099;-73
2021/11/14 08:35:44;;;;;;;11.63;6.82;;;;;;;21.91;46.02;102281.78;5070702;28;20017;-73
2021/11/14 08:38:10;;;;;;;10.45;6.65;;;;;;;21.55;47.03;102281.53;5070297;28;20021;-78
2021/11/14 08:40:37;;;;;;;8.65;5.88;;;;;;;21.52;47.41;102285.00;5069565;28;20040;-77
2021/11/14 08:43:06;;;;;;;9.45;5.80;;;;;;;21.52;47.39;102284.19;5069381;27;20443;-77
2021/11/14 08:45:33;;;;;;;10.03;6.17;;;;;;;21.57;47.30;102282.00;5069958;28;20024;-73
2021/11/14 08:47:59;;;;;;;9.15;5.78;;;;;;;21.58;47.24;102277.25;5069079;28;20025;-74
2021/11/14 08:50:27;;;;;;;9.32;6.53;;;;;;;21.60;47.41;102272.94;5068737;28;20062;-76
2021/11/14 08:52:54;;;;;;;9.50;7.28;;;;;;;21.63;47.38;102279.78;5071444;27;20086;-74
2021/11/14 08:55:22;;;;;;;12.05;8.10;;;;;;;21.67;47.30;102274.31;5069888;28;20043;-75
2021/11/14 08:57:55;;;;;;;9.88;7.57;;;;;;;21.72;47.29;102268.53;5068837;27;20051;-73
2021/11/14 09:00:25;;;;;;;12.25;8.20;;;;;;;21.73;47.39;102270.13;5069873;28;20031;-76
2021/11/14 09:02:51;;;;;;;;;;;;;;;21.76;47.26;102270.22;5067192;27;20048;-71
2021/11/14 09:05:18;;;;;;;10.85;7.88;;;;;;;21.82;47.16;102277.16;5066627;28;20023;-72
2021/11/14 09:07:44;;;;;;;10.57;7.25;;;;;;;21.84;47.35;102276.84;5065653;28;20051;-74
2021/11/14 09:10:10;;;;;;;12.73;8.23;;;;;;;21.85;47.42;102278.47;5066905;28;20028;-74
2021/11/14 09:12:36;;;;;;;11.57;6.95;;;;;;;21.84;47.49;102277.66;5068473;28;20127;-72
2021/11/14 09:15:02;;;;;;;14.52;7.03;;;;;;;21.89;47.60;102284.91;5069232;28;20120;-73
2021/11/14 09:17:28;;;;;;;13.52;8.23;;;;;;;21.97;47.51;102278.41;5068785;27;20051;-74
2021/11/14 09:19:53;;;;;;;12.18;7.97;;;;;;;22.03;47.42;102276.19;5069129;28;20024;-72
2021/11/14 09:22:20;;;;;;;14.10;8.95;;;;;;;22.00;47.46;102262.97;5070240;27;20090;-73
2021/11/14 09:24:46;;;;;;;16.67;8.23;;;;;;;21.95;47.74;102272.38;5068119;28;20040;-75
2021/11/14 09:27:13;;;;;;;14.25;7.65;;;;;;;22.08;47.48;102268.44;5068937;28;20054;-75
2021/11/14 09:29:39;;;;;;;15.55;8.32;;;;;;;22.14;47.51;102269.78;5068782;28;20075;-73
2021/11/14 09:32:06;;;;;;;12.07;7.95;;;;;;;22.22;47.16;102272.75;5065800;27;20028;-73
2021/11/14 09:34:31;;;;;;;21.15;8.23;;;;;;;22.05;47.85;102271.06;5068550;28;20571;-73
2021/11/14 09:36:59;;;;;;;13.07;8.15;;;;;;;22.23;47.37;102268.81;5067966;27;20029;-74
2021/11/14 09:39:26;;;;;;;24.05;13.70;;;;;;;22.25;47.38;102266.47;5068907;28;20774;-72
2021/11/14 09:41:53;;;;;;;18.70;10.10;;;;;;;22.24;47.43;102270.44;5072771;28;20036;-74
2021/11/14 09:44:20;;;;;;;28.42;16.48;;;;;;;22.22;47.52;102275.53;5071146;27;20041;-73
2021/11/14 09:46:51;;;;;;;51.70;36.38;;;;;;;22.27;47.29;102276.09;5072362;28;20491;-75
2021/11/14 09:49:23;;;;;;;37.97;16.80;;;;;;;22.22;47.52;102286.66;5072249;28;20443;-71
2021/11/14 09:51:50;;;;;;;28.20;16.48;;;;;;;22.30;47.41;102292.09;5071922;28;20060;-72
2021/11/14 09:54:17;;;;;;;21.35;11.73;;;;;;;22.39;47.19;102295.53;5073931;28;20528;-73
2021/11/14 09:56:43;;;;;;;24.77;10.32;;;;;;;22.35;47.62;102313.28;5073797;28;20032;-74
2021/11/14 09:59:09;;;;;;;20.83;10.02;;;;;;;22.39;47.74;102303.88;5071136;28;20394;-70
2021/11/14 10:01:38;;;;;;;17.85;9.73;;;;;;;22.41;47.65;102306.31;5073420;28;20032;-73
2021/11/14 10:04:04;;;;;;;18.67;8.70;;;;;;;22.49;47.48;102310.91;5071733;28;20036;-73
2021/11/14 10:06:29;;;;;;;19.70;7.85;;;;;;;22.53;47.57;102314.59;5064063;28;20036;-75
2021/11/14 10:08:55;;;;;;;14.68;8.45;;;;;;;22.65;47.50;102317.31;5053500;28;20094;-73
2021/11/14 10:11:35;;;;;;;21.48;7.88;;;;;;;22.71;47.29;102313.09;5053389;28;20036;-73
2021/11/14 10:14:01;;;;;;;;;;;;;;;22.71;47.41;102312.28;5053409;28;20025;-73
2021/11/14 10:16:28;;;;;;;13.88;7.25;;;;;;;22.80;47.00;102306.53;5053685;28;20413;-74
2021/11/14 10:18:57;;;;;;;19.98;9.48;;;;;;;22.85;47.29;102309.06;5054395;28;20099;-74
2021/11/14 10:21:25;;;;;;;14.63;7.60;;;;;;;22.87;47.40;102307.56;5054796;28;20095;-73
2021/11/14 10:23:51;;;;;;;15.00;7.50;;;;;;;23.37;45.87;102310.78;5054711;28;20036;-74
2021/11/14 10:26:17;;;;;;;16.20;8.13;;;;;;;23.02;46.61;102303.16;5053262;28;20032;-74
2021/11/14 10:28:48;;;;;;;16.75;7.90;;;;;;;23.00;47.11;102307.47;5053309;28;20028;-73
2021/11/14 10:31:21;;;;;;;13.60;7.40;;;;;;;23.37;46.06;102307.97;5053263;28;20025;-72
2021/11/14 10:33:50;;;;;;;14.32;6.85;;;;;;;23.65;45.43;102308.63;5053618;28;20427;-72
2021/11/14 10:36:15;;;;;;;14.23;6.03;;;;;;;23.64;45.74;102312.59;5053658;28;20596;-72
2021/11/14 10:38:41;;;;;;;14.63;8.23;;;;;;;23.70;45.53;102316.72;5053351;28;20021;-71
2021/11/14 10:41:12;;;;;;;9.60;6.43;;;;;;;23.78;45.53;102306.53;5053099;28;20033;-70
2021/11/14 10:43:39;;;;;;;13.00;6.05;;;;;;;23.73;45.61;102316.03;5053951;28;20032;-73
2021/11/14 10:46:15;;;;;;;13.15;6.63;;;;;;;23.78;45.35;102318.50;5053998;28;20021;-71
2021/11/14 10:48:41;;;;;;;16.30;6.82;;;;;;;23.59;45.47;102321.25;5054180;28;20121;-71
2021/11/14 10:51:11;;;;;;;10.57;7.57;;;;;;;23.77;45.26;102322.47;5052159;28;20021;-73
2021/11/14 10:53:37;;;;;;;26.05;15.80;;;;;;;23.85;44.87;102325.41;5052415;28;20033;-72
2021/11/14 10:56:10;;;;;;;76.10;47.35;;;;;;;23.86;44.90;102330.63;5052350;28;20029;-73
2021/11/14 10:58:36;;;;;;;38.28;23.67;;;;;;;23.90;44.97;102325.94;5052713;28;20025;-71
2021/11/14 11:01:06;;;;;;;95.10;60.25;;;;;;;23.91;44.92;102326.75;5053654;28;20025;-71
2021/11/14 11:03:36;;;;;;;;;;;;;;;23.93;44.57;102325.19;5054266;28;20049;-70
2021/11/14 11:06:04;;;;;;;78.18;46.88;;;;;;;23.95;44.72;102322.84;5069261;28;19963;-71
2021/11/14 11:08:30;;;;;;;66.05;40.03;;;;;;;24.05;44.36;102322.28;5062140;28;20123;-72
2021/11/14 11:11:00;;;;;;;37.08;21.30;;;;;;;24.04;44.12;102329.03;5073736;28;20035;-71
2021/11/14 11:13:38;;;;;;;29.88;15.63;;;;;;;24.08;44.45;102327.13;5074257;28;20103;-72
2021/11/14 11:16:08;;;;;;;24.95;13.23;;;;;;;24.08;43.76;102334.69;5074088;28;20032;-73
2021/11/14 11:18:35;;;;;;;29.42;14.00;;;;;;;24.07;44.09;102341.44;5073592;28;20047;-71